Terminal Aerodrome Forecast
Issued by NWS

Home | Current Version | Previous Version | Graphics & Text | Print | Product List | Glossary On
Versions: 1 2 3 4 5 6 7 8 9 10 11 12 13 14 15 16 17 18 19 20
000
FTUS43 KOAX 222321
TAFCDR
TAF
KCDR 222321Z 2300/2324 34013KT P6SM FEW150
     FM230300 05012KT P6SM VCSH SCT015 OVC050
     FM230600 05014KT 2SM -SN OVC010
     FM231500 05015G22KT 3/4SM -SN BR OVC006=

USA.gov is the U.S. government's official web portal to all federal, state and local government web resources and services.